Terminal Aerodrome Forecast
Issued by NWS

Home | Current Version | Previous Version | Text Only | Print | Product List | Glossary On
Versions: 1 2 3 4 5 6 7 8 9 10 11 12 13 14 15 16 17 18 19 20 21 22 23 24 25 26 27 28 29 30 31 32 33
000
FTUS45 KBOU 261857 AAA
TAFBJC
TAF AMD
KBJC 261857Z 2619/2718 02008KT P6SM VCSH BKN030 BKN050
      TEMPO 2619/2623 -SHRA OVC030
     FM262300 31006KT P6SM VCSH SCT040 BKN060
     FM270200 22006KT P6SM SCT060 BKN080
     FM270400 25006KT P6SM FEW060 BKN120=

USA.gov is the U.S. government's official web portal to all federal, state and local government web resources and services.